createdAt,value
2018-01-28T16:14:36.995Z,99571.82
2018-01-28T16:17:05.997Z,99590.27
2018-01-28T16:19:34.252Z,99592.42
2018-01-28T16:22:03.312Z,99589.35
2018-01-28T16:24:31.547Z,99580.66
2018-01-28T16:26:59.879Z,99595.73
2018-01-28T16:29:28.110Z,99591.80
2018-01-28T16:31:56.362Z,99596.48
2018-01-28T16:34:25.377Z,99600.81
2018-01-28T16:36:53.674Z,99607.88
2018-01-28T16:39:21.954Z,99623.70
2018-01-28T16:41:50.181Z,99628.25
2018-01-28T16:44:18.535Z,99634.09
2018-01-28T16:46:46.797Z,99638.28
2018-01-28T16:49:15.037Z,99636.59
2018-01-28T16:51:43.309Z,99635.25
2018-01-28T16:54:11.634Z,99630.88
2018-01-28T16:56:39.901Z,99619.84
2018-01-28T16:59:08.151Z,99618.25
2018-01-28T17:01:36.410Z,99619.48
2018-01-28T17:04:04.650Z,99634.20
2018-01-28T17:06:33.826Z,99643.77
2018-01-28T17:09:02.106Z,99643.88
2018-01-28T17:11:30.398Z,99653.07
2018-01-28T17:13:58.677Z,99652.75
2018-01-28T17:16:26.955Z,99652.80
2018-01-28T17:18:56.001Z,99643.14
2018-01-28T17:21:24.392Z,99645.45
2018-01-28T17:23:52.678Z,99639.59
2018-01-28T17:26:20.963Z,99645.45
2018-01-28T17:28:49.197Z,99641.41
2018-01-28T17:31:17.514Z,99646.81
2018-01-28T17:33:45.809Z,99654.66
2018-01-28T17:36:14.889Z,99655.52
2018-01-28T17:38:43.742Z,99652.50
2018-01-28T17:41:12.015Z,99642.84
2018-01-28T17:43:40.250Z,99640.27
2018-01-28T17:46:09.259Z,99630.10
2018-01-28T17:48:37.506Z,99633.55
2018-01-28T17:51:06.570Z,99632.64
2018-01-28T17:53:34.820Z,99639.53
2018-01-28T17:56:03.053Z,99640.64
2018-01-28T17:58:32.074Z,99634.80
2018-01-28T18:01:00.328Z,99647.45
2018-01-28T18:03:29.389Z,99650.45
2018-01-28T18:05:57.673Z,99645.37
2018-01-28T18:08:25.961Z,99647.94
2018-01-28T18:10:55.021Z,99655.11
2018-01-28T18:13:23.308Z,99650.41
2018-01-28T18:15:51.602Z,99661.48
2018-01-28T18:18:19.889Z,99666.16
2018-01-28T18:20:48.124Z,99660.16
2018-01-28T18:23:16.440Z,99664.83
2018-01-28T18:25:45.764Z,99673.26
2018-01-28T18:28:14.009Z,99677.05
2018-01-28T18:30:42.314Z,99669.93
2018-01-28T18:33:11.385Z,99673.47
2018-01-28T18:35:39.679Z,99674.63
2018-01-28T18:38:07.991Z,99674.66
2018-01-28T18:40:36.238Z,99668.83
2018-01-28T18:43:04.537Z,99671.80
2018-01-28T18:45:32.774Z,99676.73
2018-01-28T18:48:01.797Z,99679.32
2018-01-28T18:50:30.089Z,99677.23
2018-01-28T18:52:58.391Z,99678.80
2018-01-28T18:55:26.796Z,99670.09
2018-01-28T18:57:55.003Z,99678.19
2018-01-28T19:00:23.258Z,99676.59
2018-01-28T19:02:51.574Z,99668.88
2018-01-28T19:05:19.824Z,99666.83
2018-01-28T19:07:48.049Z,99666.46
2018-01-28T19:10:16.353Z,99669.91
2018-01-28T19:12:45.400Z,99668.61
2018-01-28T19:15:13.705Z,99659.53
2018-01-28T19:17:41.950Z,99662.53
2018-01-28T19:20:10.208Z,99656.25
2018-01-28T19:22:38.539Z,99657.58
2018-01-28T19:25:06.860Z,99650.02
2018-01-28T19:27:35.161Z,99651.73
2018-01-28T19:30:03.445Z,99647.94
2018-01-28T19:32:31.732Z,99649.54
2018-01-28T19:35:00.040Z,99653.28
2018-01-28T19:37:29.104Z,99655.44
2018-01-28T19:39:57.392Z,99649.95
2018-01-28T19:42:26.447Z,99660.20
2018-01-28T19:44:54.674Z,99663.36
2018-01-28T19:47:23.755Z,99665.14
2018-01-28T19:49:52.771Z,99657.58
2018-01-28T19:52:21.076Z,99660.95
2018-01-28T19:54:49.314Z,99663.17
2018-01-28T19:57:18.381Z,99658.89
2018-01-28T19:59:46.628Z,99661.09
2018-01-28T20:02:14.879Z,99652.69
2018-01-28T20:04:43.131Z,99654.23
2018-01-28T20:07:12.204Z,99653.00
2018-01-28T20:09:40.448Z,99656.77
2018-01-28T20:12:08.745Z,99655.00
2018-01-28T20:14:37.021Z,99653.81
2018-01-28T20:17:05.320Z,99649.08
2018-01-28T20:19:35.104Z,99657.39
2018-01-28T20:22:03.351Z,99663.31
2018-01-28T20:24:31.654Z,99657.89
2018-01-28T20:26:59.953Z,99652.38
2018-01-28T20:29:28.243Z,99656.63
2018-01-28T20:31:57.297Z,99661.27
2018-01-28T20:34:25.586Z,99658.43
2018-01-28T20:36:53.827Z,99654.66
2018-01-28T20:39:22.138Z,99658.86
2018-01-28T20:41:50.374Z,99661.36
2018-01-28T20:44:18.669Z,99656.25
2018-01-28T20:46:46.950Z,99659.20
2018-01-28T20:49:15.244Z,99653.31
2018-01-28T20:51:43.538Z,99656.23
2018-01-28T20:54:12.097Z,99655.84
2018-01-28T20:56:40.325Z,99667.09
2018-01-28T20:59:08.848Z,99653.70
2018-01-28T21:01:37.274Z,99649.95
2018-01-28T21:04:06.281Z,99644.48
2018-01-28T21:06:34.583Z,99652.04
2018-01-28T21:09:02.859Z,99651.61
2018-01-28T21:11:31.141Z,99655.38
2018-01-28T21:13:59.377Z,99637.34
2018-01-28T21:16:27.621Z,99642.30
2018-01-28T21:18:55.919Z,99641.85
2018-01-28T21:21:24.926Z,99648.56
2018-01-28T21:23:53.221Z,99640.61
2018-01-28T21:26:21.471Z,99633.44
2018-01-28T21:28:49.770Z,99635.64
2018-01-28T21:31:18.073Z,99636.38
2018-01-28T21:33:46.356Z,99632.22
2018-01-28T21:36:14.638Z,99630.53
2018-01-28T21:38:43.235Z,99641.03
2018-01-28T21:41:11.528Z,99638.67
2018-01-28T21:43:40.574Z,99641.89
2018-01-28T21:46:08.870Z,99638.62
2018-01-28T21:48:37.148Z,99636.92
2018-01-28T21:51:05.430Z,99637.33
2018-01-28T21:53:33.658Z,99626.09
2018-01-28T21:56:01.962Z,99627.33
2018-01-28T21:58:30.198Z,99605.80
2018-01-28T22:00:58.460Z,99609.62
2018-01-28T22:03:26.750Z,99605.08
2018-01-28T22:05:55.011Z,99620.30
2018-01-28T22:08:23.314Z,99604.69
2018-01-28T22:10:51.610Z,99610.97
2018-01-28T22:13:19.914Z,99627.44
2018-01-28T22:15:48.157Z,99620.30
2018-01-28T22:18:17.220Z,99625.43
2018-01-28T22:20:45.502Z,99635.89
2018-01-28T22:23:13.801Z,99627.55
2018-01-28T22:25:42.038Z,99627.05
2018-01-28T22:28:10.276Z,99627.56
2018-01-28T22:30:38.531Z,99628.47
2018-01-28T22:33:06.834Z,99635.96
2018-01-28T22:35:35.130Z,99632.16
2018-01-28T22:38:04.254Z,99639.41
2018-01-28T22:40:32.510Z,99644.78
2018-01-28T22:43:00.817Z,99633.02
2018-01-28T22:45:29.410Z,99619.13
2018-01-28T22:47:57.731Z,99605.41
2018-01-28T22:50:26.789Z,99599.00
2018-01-28T22:52:55.209Z,99598.64
2018-01-28T22:55:24.279Z,99597.38
2018-01-28T22:57:52.614Z,99601.59
2018-01-28T23:00:20.978Z,99600.77
2018-01-28T23:02:49.268Z,99598.34
2018-01-28T23:05:17.530Z,99602.05
2018-01-28T23:07:45.810Z,99587.92
2018-01-28T23:10:14.105Z,99594.97
2018-01-28T23:12:42.418Z,99600.37
2018-01-28T23:15:10.704Z,99588.77
2018-01-28T23:17:39.750Z,99588.38
2018-01-28T23:20:08.112Z,99587.92
2018-01-28T23:22:36.388Z,99585.16
2018-01-28T23:25:04.651Z,99587.61
2018-01-28T23:27:33.136Z,99594.41
2018-01-28T23:30:01.453Z,99583.95
2018-01-28T23:32:29.699Z,99584.33
2018-01-28T23:34:57.984Z,99586.11
2018-01-28T23:37:26.241Z,99585.21
2018-01-28T23:39:54.531Z,99585.70
2018-01-28T23:42:22.876Z,99581.50
2018-01-28T23:44:51.920Z,99595.81
2018-01-28T23:47:20.202Z,99594.03
2018-01-28T23:49:48.539Z,99597.48
2018-01-28T23:52:16.812Z,99591.23
2018-01-28T23:54:45.066Z,99601.45
2018-01-28T23:57:14.114Z,99590.53
2018-01-28T23:59:42.409Z,99592.21
